Laurent Verva

Laurent Verva

Statistiques 2026

  • Courses courues : 42
  • Nb de victoires : -
  • Nb de places : 1
  • Écart gagnant : 143
  • Réussite à la gagne : -
  • Réussite à la place : 2%
Musique : 0a 8a 4a 6a 6a 0a 5a 5a Da 2a 9a 6a 5a Da 6a 0a 7a 4a
DateRangCatégorieAlloc.Dist.HippodromeChevalRed. KmSpé.
14/09/25 7 Trot 12 000€ 2 625m Saint Omer Lily Rose du Ganep 1'21"0 Attelé
14/09/25 2 Trot 12 000€ 2 625m Saint Omer Love With You 1'18"0 Attelé
12/04/26 4 Trot 13 000€ 2 625m Saint Omer Mavie des Ventes 1'18"5 Attelé
12/04/26 7 Trot 13 000€ 2 625m Saint Omer Maestro du Val 1'20"5 Attelé
02/09/18 6 Trot 13 000€ 2 625m Saint Omer Fidji Song 1'20"3 Attelé
02/09/18 0 Trot 14 000€ 2 650m Saint Omer Eden Pierji Attelé
02/09/18 4 Trot 13 000€ 2 625m Saint Omer Flashback Syga 1'21"2 Attelé
02/09/18 2 Trot 25 000€ 2 650m Saint Omer Au Temps Dubonheur 1'15"9 Attelé
02/09/18 D Trot 14 000€ 2 625m Saint Omer Epona des Neuzy Attelé
02/09/18 8 Trot 15 000€ 2 625m Saint Omer Dryade des Salines 1'20"2 Attelé
23/09/18 1 Trot 12 000€ 2 625m Saint Omer Flashback Syga 1'24"5 Attelé
23/09/18 4 Trot 12 000€ 2 625m Saint Omer Fiston d'hertals 1'24"6 Attelé
23/09/18 6 Trot 12 000€ 2 625m Saint Omer Etoile d'Ocque 1'23"8 Attelé
23/09/18 2 Trot 12 000€ 2 625m Saint Omer Erythia 1'23"0 Attelé
23/09/18 3 Trot 12 000€ 2 625m Saint Omer Fleur du Ramierou 1'22"1 Attelé
23/09/18 2 Trot 12 000€ 2 625m Saint Omer Filae des Salines 1'23"7 Attelé
23/09/18 4 Trot 12 000€ 2 625m Saint Omer Excelebration 1'20"6 Attelé
23/09/18 7 Trot 12 000€ 2 625m Saint Omer Ezekiel Okina 1'21"9 Attelé
14/04/19 1 Trot 20 000€ 2 650m Saint Omer Amio Josselyn 1'16"8 Attelé
14/04/19 4 Trot 13 000€ 2 625m Saint Omer Falco d'Alci 1'18"9 Attelé
14/04/19 0 Trot 16 000€ 2 625m Saint Omer Coquin du Driehoek Attelé
16/06/19 6 Trot 13 000€ 2 625m Saint Omer Gazaro Mencourt 1'20"9 Attelé
16/06/19 2 Trot 13 000€ 2 625m Saint Omer Gitane des Marais 1'19"4 Attelé
16/06/19 4 Trot 12 000€ 2 625m Saint Omer Frimousse de Marny 1'19"4 Attelé
16/06/19 D Trot 20 000€ 2 625m Saint Omer Bilingue d'Alci Attelé
16/06/19 D Trot 12 000€ 2 625m Saint Omer Fakir de Cerisy Attelé
16/06/19 D Trot 12 000€ 2 625m Saint Omer Fakir Kuky Attelé
07/07/19 D Trot 12 000€ 2 625m Saint Omer Gazaro Mencourt Attelé
07/07/19 5 Trot 13 000€ 2 625m Saint Omer First du Rouilly 1'19"2 Attelé
07/07/19 D Trot 13 000€ 2 625m Saint Omer Fysalia Attelé
07/07/19 4 Trot 19 000€ 2 650m Saint Omer Buxus Calendes 1'15"2 Attelé
01/09/19 D Trot 12 000€ 2 625m Saint Omer Gabriela du Toulay Attelé
01/09/19 4 Trot 12 000€ 2 625m Saint Omer Gourmande Attelé
01/09/19 D Trot 12 000€ 2 625m Saint Omer Gazaro Mencourt Attelé
01/09/19 6 Trot 12 000€ 2 625m Saint Omer Goodmoko Attelé
01/09/19 D Trot 12 000€ 2 650m Saint Omer Fille des Marais Attelé
01/09/19 9 Trot 14 000€ 2 650m Saint Omer Esther du Ganep Attelé
29/09/19 4 Trot 12 000€ 2 625m Saint Omer Gazaro Mencourt 1'22"1 Attelé
29/09/19 6 Trot 12 000€ 2 625m Saint Omer Fille des Marais 1'23"3 Attelé
29/09/19 1 Trot 12 000€ 2 625m Saint Omer Felinara 1'21"0 Attelé
29/09/19 5 Trot 12 000€ 2 625m Saint Omer Grace du Houlet 1'25"4 Attelé
29/09/19 2 Trot 12 000€ 2 625m Saint Omer Gabriela du Toulay 1'21"0 Attelé
29/09/19 6 Trot 12 000€ 2 625m Saint Omer Fetzo Reglisse 1'22"7 Attelé
29/09/19 1 Trot 12 000€ 2 625m Saint Omer Forlando du Vivier 1'20"8 Attelé
21/06/20 4 Trot 12 000€ 2 625m Saint Omer Hooker 1'20"3 Attelé
21/06/20 2 Trot 12 000€ 2 625m Saint Omer Hina Cal 1'21"2 Attelé
21/06/20 4 Trot 11 000€ 2 625m Saint Omer Golden Evasion 1'19"3 Attelé
21/06/20 9 Trot 11 000€ 2 625m Saint Omer Galilea Favi 1'22"1 Attelé
21/06/20 9 Trot 21 000€ 2 650m Saint Omer Defi Calendes 1'16"7 Attelé
21/06/20 8 Trot 14 000€ 2 625m Saint Omer Elegant de Chevrol 1'18"7 Attelé